Tustin, California
Current Conditions -  °F | °C
As of 4:53 AM on Tuesday 21 Oct 2014 (Local Time) from KSNA Reporting Station
Overcast Overcast  
Wind Chill: 65°   Ceiling: 1700
Heat Index: 65°   Visibility: 9mi
Dew Point: 59°   Wind: 3mph
Humidity: 81%   Direction: 340°NNW
Pressure: 29.9"   Gusts: NA
Location:  33.74°N, 117.81°W
Report Text: KSNA 211153Z AUTO 34003KT 9SM OVC017 18/15 A2990 RMK AO2 SLP122 T01830150 10206 20183 55003 TSNO
Loading
Personal Weather Stations






























Interactive Weather Map
Tropical Storm Tracking
New forecast layout! Learn more

10-Day Weather Forecast

Advertisements
Track Severe Weather on mobile